Time;durP1;ratioP1;P1;durP2;ratioP2;P2;SDS_P1;SDS_P2;PMS_P1;PMS_P2;Temp;Humidity;BMP_temperature;BMP_pressure;BME280_temperature;BME280_humidity;BME280_pressure;Samples;Min_cycle;Max_cycle;Signal;HPM_P1;HPM_P2
2022/08/25 00:00:09;;;;;;;0.90;0.90;;;19.90;98.20;;;;;;5050774;28;20969;-60
2022/08/25 00:02:36;;;;;;;0.52;0.52;;;19.80;98.30;;;;;;5049698;28;20524;-60
2022/08/25 00:05:04;;;;;;;0.70;0.70;;;19.80;98.40;;;;;;5040108;28;20506;-61
2022/08/25 00:07:32;;;;;;;0.50;0.50;;;19.70;98.50;;;;;;5046734;28;20429;-60
2022/08/25 00:09:59;;;;;;;0.60;0.60;;;19.70;98.60;;;;;;5049750;28;20508;-60
2022/08/25 00:12:26;;;;;;;0.50;0.50;;;19.70;98.60;;;;;;5048773;28;20508;-60
2022/08/25 00:14:53;;;;;;;0.57;0.57;;;19.70;98.70;;;;;;5047687;28;20447;-61
2022/08/25 00:17:20;;;;;;;0.50;0.50;;;19.60;98.80;;;;;;5041224;28;20433;-61
2022/08/25 00:19:50;;;;;;;2.00;0.80;;;19.60;99.00;;;;;;5042514;28;20425;-60
2022/08/25 00:22:20;;;;;;;0.70;0.70;;;19.60;99.00;;;;;;5049932;28;20484;-61
2022/08/25 00:24:46;;;;;;;0.60;0.60;;;19.60;99.10;;;;;;5042981;28;20432;-61
2022/08/25 00:27:13;;;;;;;0.60;0.60;;;19.50;99.20;;;;;;5043077;28;20835;-61
2022/08/25 00:29:40;;;;;;;1.00;0.63;;;19.50;99.20;;;;;;5049055;28;21156;-61
2022/08/25 00:32:07;;;;;;;0.70;0.70;;;19.50;99.30;;;;;;5039199;28;20516;-61
2022/08/25 00:34:36;;;;;;;1.20;0.77;;;19.40;99.40;;;;;;5041075;28;20440;-60
2022/08/25 00:37:08;;;;;;;0.82;0.82;;;19.40;99.50;;;;;;5046123;28;20429;-61
2022/08/25 00:39:57;;;;;;;0.70;0.70;;;19.50;99.60;;;;;;5044807;28;20925;-61
2022/08/25 00:42:25;;;;;;;0.57;0.57;;;19.40;99.60;;;;;;5041283;28;20807;-61
2022/08/25 00:44:52;;;;;;;0.60;0.60;;;19.50;99.60;;;;;;5045149;28;20433;-61
2022/08/25 00:47:19;;;;;;;0.70;0.70;;;19.50;99.70;;;;;;5038799;28;21082;-60
2022/08/25 00:49:53;;;;;;;0.80;0.80;;;19.50;99.70;;;;;;5037442;28;20449;-61
2022/08/25 00:52:25;;;;;;;0.65;0.65;;;19.50;99.70;;;;;;5045133;28;20775;-60
2022/08/25 00:55:02;;;;;;;0.77;0.77;;;19.50;99.90;;;;;;5046112;28;20427;-60
2022/08/25 00:57:42;;;;;;;0.88;0.88;;;19.50;99.90;;;;;;5047043;28;20417;-60
2022/08/25 01:00:18;;;;;;;0.60;0.60;;;19.50;99.90;;;;;;5046123;28;20423;-61
2022/08/25 01:02:47;;;;;;;1.02;0.98;;;19.40;99.90;;;;;;5043376;28;20507;-60
2022/08/25 01:05:14;;;;;;;0.90;0.90;;;19.40;99.90;;;;;;5020945;28;20439;-60
2022/08/25 01:07:43;;;;;;;0.50;0.50;;;19.40;99.90;;;;;;5038844;28;21016;-60
2022/08/25 01:10:12;;;;;;;1.40;0.63;;;19.50;99.90;;;;;;5044833;28;20471;-60
2022/08/25 01:12:39;;;;;;;0.70;0.70;;;19.60;99.90;;;;;;5043541;28;20436;-60
2022/08/25 01:15:12;;;;;;;0.60;0.60;;;19.60;99.90;;;;;;5041187;28;20459;-60
2022/08/25 01:17:47;;;;;;;0.73;0.73;;;19.70;99.90;;;;;;5035796;28;20993;-60
2022/08/25 01:20:15;;;;;;;1.20;0.60;;;19.70;99.90;;;;;;5046899;28;20427;-61
2022/08/25 01:22:42;;;;;;;0.73;0.73;;;19.70;99.90;;;;;;5041287;28;20425;-60
2022/08/25 01:25:34;;;;;;;0.70;0.70;;;19.60;99.90;;;;;;5045114;28;21127;-60
2022/08/25 01:28:02;;;;;;;0.70;0.70;;;19.60;99.90;;;;;;5041512;28;20879;-60
2022/08/25 01:30:29;;;;;;;0.70;0.70;;;19.60;99.90;;;;;;5043471;28;20799;-60
2022/08/25 01:33:02;;;;;;;0.70;0.70;;;19.60;99.90;;;;;;5042607;28;20432;-60
2022/08/25 01:35:29;;;;;;;0.65;0.60;;;19.60;99.90;;;;;;5039873;28;20431;-61
2022/08/25 01:37:56;;;;;;;0.70;0.70;;;19.60;99.90;;;;;;5048873;28;20520;-61
2022/08/25 01:40:23;;;;;;;0.88;0.88;;;19.60;99.90;;;;;;5049377;28;20435;-61
2022/08/25 01:43:05;;;;;;;0.70;0.70;;;19.50;99.90;;;;;;5044808;28;20832;-61
2022/08/25 01:45:33;;;;;;;0.68;0.68;;;19.60;99.90;;;;;;5048401;28;20516;-61
2022/08/25 01:48:04;;;;;;;0.50;0.50;;;19.60;99.90;;;;;;5040002;28;20465;-61
2022/08/25 01:50:31;;;;;;;0.63;0.63;;;19.50;99.90;;;;;;5051322;28;20425;-61
2022/08/25 01:53:31;;;;;;;1.90;0.77;;;19.50;99.90;;;;;;5048468;28;20433;-61
2022/08/25 01:56:14;;;;;;;0.70;0.70;;;19.50;99.90;;;;;;5044818;28;20483;-61
2022/08/25 01:58:45;;;;;;;0.68;0.68;;;19.40;99.90;;;;;;5051320;28;20433;-61
2022/08/25 02:01:16;;;;;;;0.90;0.90;;;19.40;99.90;;;;;;5051422;28;20425;-62
2022/08/25 02:03:45;;;;;;;0.65;0.65;;;19.40;99.90;;;;;;5081966;28;20468;-61
2022/08/25 02:06:18;;;;;;;1.38;0.70;;;19.30;99.90;;;;;;5081018;28;20448;-61
2022/08/25 02:08:48;;;;;;;0.77;0.77;;;19.20;99.90;;;;;;5045192;28;20427;-63
2022/08/25 02:11:15;;;;;;;0.90;0.90;;;19.20;99.90;;;;;;5033561;28;20742;-60
2022/08/25 02:13:42;;;;;;;0.88;0.80;;;19.20;99.90;;;;;;5054075;28;20437;-60
2022/08/25 02:16:13;;;;;;;0.73;0.73;;;19.30;99.90;;;;;;5043407;28;20439;-61
2022/08/25 02:18:40;;;;;;;1.33;0.75;;;19.20;99.90;;;;;;5045097;28;20433;-61
2022/08/25 02:21:07;;;;;;;0.90;0.90;;;19.20;99.90;;;;;;5043335;28;20923;-60
2022/08/25 02:23:34;;;;;;;0.82;0.82;;;19.20;99.90;;;;;;5049417;28;20451;-61
2022/08/25 02:26:02;;;;;;;1.20;1.07;;;19.10;99.90;;;;;;5050526;28;20457;-61
2022/08/25 02:28:31;;;;;;;0.73;0.73;;;19.10;99.90;;;;;;5048290;28;20514;-61
2022/08/25 02:30:58;;;;;;;1.55;0.98;;;19.00;99.90;;;;;;5045457;28;20759;-61
2022/08/25 02:33:27;;;;;;;0.90;0.80;;;19.00;99.90;;;;;;5048503;28;20444;-61
2022/08/25 02:35:58;;;;;;;0.80;0.80;;;18.90;99.90;;;;;;5046550;28;20444;-61
2022/08/25 02:38:26;;;;;;;1.20;0.65;;;18.80;99.90;;;;;;5036614;28;20870;-61
2022/08/25 02:40:57;;;;;;;0.85;0.85;;;18.70;99.90;;;;;;5047699;28;20441;-61
2022/08/25 02:43:26;;;;;;;0.80;0.80;;;18.60;99.90;;;;;;5052060;28;20432;-61
2022/08/25 02:45:55;;;;;;;0.80;0.80;;;18.60;99.90;;;;;;5046597;28;20428;-61
2022/08/25 02:48:22;;;;;;;0.90;0.90;;;18.50;99.90;;;;;;5042176;28;20458;-60
2022/08/25 02:50:51;;;;;;;0.70;0.70;;;18.40;99.90;;;;;;5049421;28;20508;-60
2022/08/25 02:53:19;;;;;;;0.90;0.90;;;18.40;99.90;;;;;;5041770;28;20438;-60
2022/08/25 02:55:46;;;;;;;1.00;1.00;;;18.40;99.90;;;;;;5050918;28;20433;-61
2022/08/25 02:58:14;;;;;;;1.55;0.82;;;18.40;99.90;;;;;;5046195;28;20427;-61
2022/08/25 03:00:41;;;;;;;1.08;0.82;;;18.40;99.90;;;;;;5047175;28;21010;-61
2022/08/25 03:03:08;;;;;;;0.80;0.80;;;18.40;99.90;;;;;;5046745;28;20431;-60
2022/08/25 03:05:35;;;;;;;0.80;0.77;;;18.40;99.90;;;;;;5047897;28;20439;-61
2022/08/25 03:08:03;;;;;;;0.73;0.73;;;18.40;99.90;;;;;;5040653;28;21082;-61
2022/08/25 03:10:31;;;;;;;0.80;0.80;;;18.40;99.90;;;;;;5036022;28;20457;-60
2022/08/25 03:12:58;;;;;;;0.70;0.70;;;18.30;99.90;;;;;;5049824;28;20464;-60
2022/08/25 03:15:27;;;;;;;0.57;0.57;;;18.30;99.90;;;;;;5050590;28;20435;-60
2022/08/25 03:17:56;;;;;;;0.90;0.90;;;18.30;99.90;;;;;;5036945;28;20795;-61
2022/08/25 03:20:26;;;;;;;1.10;1.00;;;18.30;99.90;;;;;;5044104;28;20432;-60
2022/08/25 03:22:53;;;;;;;1.38;1.20;;;18.20;99.90;;;;;;5045684;28;20519;-61
2022/08/25 03:28:10;;;;;;;1.00;0.93;;;18.20;99.90;;;;;;5047509;28;20483;-60
2022/08/25 03:30:37;;;;;;;1.10;0.77;;;18.20;99.90;;;;;;5044948;28;21142;-60
2022/08/25 03:33:04;;;;;;;1.10;1.00;;;18.10;99.90;;;;;;5048029;28;20421;-60
2022/08/25 03:35:34;;;;;;;0.85;0.80;;;18.10;99.90;;;;;;5049069;28;20862;-60
2022/08/25 03:38:01;;;;;;;3.50;1.00;;;18.10;99.90;;;;;;5036480;28;20433;-61
2022/08/25 03:40:28;;;;;;;1.52;1.17;;;18.20;99.90;;;;;;5046296;28;20505;-60
2022/08/25 03:42:57;;;;;;;0.70;0.70;;;18.20;99.90;;;;;;5047420;28;20851;-60
2022/08/25 03:45:24;;;;;;;0.97;0.97;;;18.20;99.90;;;;;;5041944;28;20435;-60
2022/08/25 03:47:52;;;;;;;0.98;0.98;;;18.20;99.90;;;;;;5049209;28;20432;-60
2022/08/25 03:50:21;;;;;;;0.70;0.70;;;18.20;99.90;;;;;;5037974;28;20432;-60
2022/08/25 03:53:06;;;;;;;1.05;1.05;;;18.20;99.90;;;;;;5049740;28;20436;-61
2022/08/25 03:55:36;;;;;;;0.90;0.90;;;18.20;99.90;;;;;;5039198;28;20577;-61
2022/08/25 03:58:03;;;;;;;1.08;1.08;;;18.20;99.90;;;;;;5032682;28;20513;-60
2022/08/25 04:00:30;;;;;;;0.83;0.83;;;18.20;99.90;;;;;;5042269;28;20755;-60
2022/08/25 04:02:57;;;;;;;0.70;0.70;;;18.30;99.90;;;;;;5033853;28;20440;-61
2022/08/25 04:05:24;;;;;;;0.60;0.60;;;18.30;99.90;;;;;;5048839;28;20429;-61
2022/08/25 04:07:52;;;;;;;1.00;1.00;;;18.40;99.90;;;;;;5048800;28;21103;-61
2022/08/25 04:10:19;;;;;;;0.80;0.80;;;18.40;99.90;;;;;;5049040;28;20514;-60
2022/08/25 04:12:48;;;;;;;0.90;0.90;;;18.40;99.90;;;;;;5038846;28;20514;-60
2022/08/25 04:15:15;;;;;;;1.05;1.05;;;18.40;99.90;;;;;;5029967;28;20574;-60
2022/08/25 04:17:44;;;;;;;2.30;1.20;;;18.40;99.90;;;;;;5044000;28;20421;-60
2022/08/25 04:20:12;;;;;;;0.80;0.70;;;18.50;99.90;;;;;;5042024;28;20432;-60
2022/08/25 04:22:40;;;;;;;0.90;0.90;;;18.50;99.90;;;;;;5029968;28;20560;-60
2022/08/25 04:25:13;;;;;;;0.98;0.98;;;18.50;99.90;;;;;;5043918;28;20433;-61
2022/08/25 04:27:40;;;;;;;1.00;1.00;;;18.50;99.90;;;;;;5036367;28;20431;-60
2022/08/25 04:30:08;;;;;;;0.80;0.80;;;18.60;99.90;;;;;;5038662;28;20520;-60
2022/08/25 04:32:36;;;;;;;1.10;1.00;;;18.60;99.90;;;;;;5038547;28;20520;-61
2022/08/25 04:35:10;;;;;;;1.10;1.10;;;18.60;99.90;;;;;;5048582;28;20433;-61
2022/08/25 04:37:36;;;;;;;0.90;0.90;;;18.70;99.90;;;;;;5042678;28;20475;-60
2022/08/25 04:40:04;;;;;;;1.35;1.20;;;18.70;99.90;;;;;;5045000;28;20429;-61
2022/08/25 04:42:34;;;;;;;1.23;1.10;;;18.70;99.90;;;;;;5047914;28;20492;-60
2022/08/25 04:45:04;;;;;;;0.90;0.90;;;18.70;99.90;;;;;;5046263;28;20439;-60
2022/08/25 04:47:36;;;;;;;0.93;0.93;;;18.60;99.90;;;;;;5040844;28;20429;-61
2022/08/25 04:50:05;;;;;;;1.40;1.15;;;18.60;99.90;;;;;;5047309;28;20483;-61
2022/08/25 04:52:32;;;;;;;0.82;0.82;;;18.50;99.90;;;;;;5041176;28;20497;-60
2022/08/25 04:55:03;;;;;;;0.77;0.77;;;18.50;99.90;;;;;;5041810;28;20468;-60
2022/08/25 04:57:32;;;;;;;1.23;1.23;;;18.50;99.90;;;;;;5037276;28;20512;-61
2022/08/25 05:00:01;;;;;;;1.03;1.03;;;18.50;99.90;;;;;;5047562;28;20429;-61
2022/08/25 05:02:28;;;;;;;0.90;0.90;;;18.50;99.90;;;;;;5037226;28;20860;-60
2022/08/25 05:04:55;;;;;;;2.10;0.98;;;18.60;99.90;;;;;;5041701;28;20970;-60
2022/08/25 05:07:22;;;;;;;1.47;1.20;;;18.60;99.90;;;;;;5042932;28;20881;-60
2022/08/25 05:09:51;;;;;;;1.35;1.30;;;18.60;99.90;;;;;;5050871;28;20491;-61
2022/08/25 05:12:21;;;;;;;0.83;0.83;;;18.60;99.90;;;;;;5038809;28;20439;-60
2022/08/25 05:14:51;;;;;;;1.00;1.00;;;18.70;99.90;;;;;;5044882;28;20494;-61
2022/08/25 05:17:21;;;;;;;1.00;0.95;;;18.70;99.90;;;;;;5041454;28;20441;-60
2022/08/25 05:19:48;;;;;;;1.23;1.13;;;18.80;99.90;;;;;;5038856;28;20556;-61
2022/08/25 05:22:15;;;;;;;0.93;0.90;;;18.80;99.90;;;;;;5037464;28;20434;-61
2022/08/25 05:24:41;;;;;;;1.27;1.27;;;18.90;99.90;;;;;;5039468;28;20447;-60
2022/08/25 05:27:09;;;;;;;1.30;1.20;;;18.90;99.90;;;;;;5047354;28;20486;-61
2022/08/25 05:29:35;;;;;;;1.17;1.08;;;19.00;99.90;;;;;;5043812;28;20507;-60
2022/08/25 05:32:02;;;;;;;1.00;1.00;;;19.10;99.90;;;;;;5042470;28;20426;-60
2022/08/25 05:34:29;;;;;;;1.10;1.00;;;19.20;99.90;;;;;;5072449;28;20822;-61
2022/08/25 05:36:58;;;;;;;1.37;1.27;;;19.20;99.90;;;;;;5043055;28;20516;-61
2022/08/25 05:39:26;;;;;;;0.83;0.83;;;19.30;99.90;;;;;;5049511;28;20445;-60
2022/08/25 05:41:52;;;;;;;1.23;1.20;;;19.40;99.90;;;;;;5046157;28;20433;-61
2022/08/25 05:44:22;;;;;;;1.10;1.00;;;19.50;99.90;;;;;;5037557;28;20434;-61
2022/08/25 05:46:49;;;;;;;1.35;1.17;;;19.50;99.90;;;;;;5043485;28;20439;-60
2022/08/25 05:49:16;;;;;;;1.13;1.02;;;19.70;99.90;;;;;;5067796;28;20433;-60
2022/08/25 05:51:43;;;;;;;1.07;1.07;;;19.80;99.90;;;;;;5032712;28;20457;-60
2022/08/25 05:54:10;;;;;;;0.85;0.85;;;20.00;99.90;;;;;;5039500;28;20437;-60
2022/08/25 05:56:37;;;;;;;0.80;0.80;;;20.00;99.90;;;;;;5043320;28;20510;-60
2022/08/25 05:59:03;;;;;;;1.17;1.10;;;20.10;99.90;;;;;;5050595;28;20542;-60
2022/08/25 06:04:23;;;;;;;1.48;1.38;;;20.30;99.90;;;;;;5041111;28;20490;-60
2022/08/25 06:06:52;;;;;;;0.90;0.90;;;20.50;99.90;;;;;;5038011;28;20457;-60
2022/08/25 06:09:21;;;;;;;1.00;0.95;;;20.70;99.90;;;;;;5045027;28;20429;-60
2022/08/25 06:11:50;;;;;;;1.10;0.93;;;21.40;99.90;;;;;;5042513;28;20455;-61
2022/08/25 06:14:22;;;;;;;0.85;0.85;;;22.20;99.90;;;;;;5049162;28;20516;-60
2022/08/25 06:16:50;;;;;;;0.98;0.90;;;22.90;99.90;;;;;;5047134;28;20548;-60
2022/08/25 06:19:17;;;;;;;0.90;0.90;;;23.70;99.90;;;;;;5047781;28;20429;-61
2022/08/25 06:21:44;;;;;;;0.88;0.88;;;24.30;99.90;;;;;;5040496;28;20434;-61
2022/08/25 06:24:14;;;;;;;0.98;0.98;;;24.90;99.90;;;;;;5040060;28;20436;-61
2022/08/25 06:26:42;;;;;;;1.05;1.00;;;25.50;99.90;;;;;;5048625;28;20429;-61
2022/08/25 06:29:09;;;;;;;1.00;1.00;;;25.90;99.90;;;;;;5046678;28;20931;-61
2022/08/25 06:31:36;;;;;;;1.20;1.10;;;26.30;99.90;;;;;;5041434;28;20806;-61
2022/08/25 06:34:03;;;;;;;0.82;0.82;;;26.60;99.90;;;;;;5047047;28;20846;-61
2022/08/25 06:36:31;;;;;;;0.73;0.73;;;27.00;99.90;;;;;;5050653;28;20435;-61
2022/08/25 06:38:57;;;;;;;1.10;1.10;;;27.30;99.90;;;;;;5049070;28;20516;-61
2022/08/25 06:41:25;;;;;;;1.00;1.00;;;27.60;99.10;;;;;;5046211;28;20516;-61
2022/08/25 06:44:03;;;;;;;1.35;1.25;;;27.90;98.70;;;;;;5043385;28;20444;-60
2022/08/25 06:46:31;;;;;;;2.50;1.10;;;27.70;98.40;;;;;;5046492;28;20470;-60
2022/08/25 06:49:04;;;;;;;1.15;1.05;;;27.80;98.50;;;;;;5043856;28;20448;-62
2022/08/25 06:51:31;;;;;;;1.00;1.00;;;27.80;98.50;;;;;;5041134;28;20426;-62
2022/08/25 06:53:59;;;;;;;1.35;1.25;;;27.50;98.10;;;;;;5029760;28;20582;-62
2022/08/25 06:56:26;;;;;;;0.80;0.80;;;27.10;99.10;;;;;;5042832;28;20500;-61
2022/08/25 06:58:52;;;;;;;0.90;0.90;;;27.20;99.00;;;;;;5047289;28;20911;-63
2022/08/25 07:01:24;;;;;;;0.95;0.95;;;27.40;98.90;;;;;;5035152;28;20556;-61
2022/08/25 07:03:58;;;;;;;0.90;0.90;;;27.50;98.70;;;;;;5045257;28;20532;-62
2022/08/25 07:06:30;;;;;;;1.37;1.00;;;26.90;99.80;;;;;;5053247;28;21066;-62
2022/08/25 07:08:58;;;;;;;1.15;1.15;;;26.20;99.90;;;;;;5045120;28;21236;-62
2022/08/25 07:11:25;;;;;;;1.10;1.00;;;25.80;99.90;;;;;;5037216;28;20523;-61
2022/08/25 07:13:52;;;;;;;1.20;1.20;;;25.80;99.90;;;;;;5043727;28;20433;-61
2022/08/25 07:16:19;;;;;;;1.03;1.03;;;26.10;99.90;;;;;;5043796;28;21218;-61
2022/08/25 07:18:47;;;;;;;1.10;1.10;;;26.50;99.90;;;;;;5071196;28;20424;-62
2022/08/25 07:21:14;;;;;;;1.30;1.20;;;26.60;99.90;;;;;;5048569;28;20444;-63
2022/08/25 07:23:41;;;;;;;0.98;0.98;;;26.70;99.90;;;;;;5044458;28;21193;-63
2022/08/25 07:26:13;;;;;;;1.63;1.13;;;27.20;99.90;;;;;;5041226;28;20482;-63
2022/08/25 07:29:03;;;;;;;1.30;1.30;;;27.50;99.90;;;;;;5040422;28;20422;-63
2022/08/25 07:31:33;;;;;;;1.20;1.15;;;27.80;99.20;;;;;;5049610;28;20437;-63
2022/08/25 07:36:45;;;;;;;1.30;0.90;;;28.10;98.50;;;;;;5047829;28;20440;-62
2022/08/25 07:39:12;;;;;;;1.30;1.30;;;28.40;98.60;;;;;;5044451;28;20931;-63
2022/08/25 07:41:40;;;;;;;1.05;1.05;;;28.70;98.40;;;;;;5053890;28;20433;-63
2022/08/25 07:44:09;;;;;;;0.80;0.80;;;29.00;97.70;;;;;;5044473;28;20528;-63
2022/08/25 07:46:36;;;;;;;0.95;0.95;;;29.20;97.80;;;;;;5045084;28;20439;-62
2022/08/25 07:49:04;;;;;;;1.00;1.00;;;29.10;97.50;;;;;;5044959;28;20429;-63
2022/08/25 07:51:42;;;;;;;1.08;1.08;;;29.00;97.70;;;;;;5035239;28;20491;-63
2022/08/25 07:54:30;;;;;;;1.10;1.10;;;29.40;97.80;;;;;;5017257;28;20475;-63
2022/08/25 07:57:02;;;;;;;1.30;1.30;;;29.60;97.50;;;;;;5019660;28;20444;-63
2022/08/25 07:59:29;;;;;;;1.00;1.00;;;29.70;97.30;;;;;;5014347;28;20451;-62
2022/08/25 08:02:13;;;;;;;1.10;1.10;;;29.30;97.10;;;;;;5025982;28;20496;-63
2022/08/25 08:04:49;;;;;;;1.20;1.20;;;29.10;97.30;;;;;;5020283;28;20457;-62
2022/08/25 08:07:22;;;;;;;1.50;1.40;;;29.10;97.70;;;;;;5020841;28;20455;-63
2022/08/25 08:10:10;;;;;;;1.38;1.38;;;29.10;98.00;;;;;;5018444;28;20439;-63
2022/08/25 08:12:57;;;;;;;1.40;1.30;;;29.70;97.70;;;;;;5013364;28;20422;-63
2022/08/25 08:15:33;;;;;;;1.40;1.30;;;30.20;96.70;;;;;;5027781;28;20438;-63
2022/08/25 08:18:01;;;;;;;1.30;1.30;;;30.20;96.50;;;;;;5032068;28;20975;-63
2022/08/25 08:20:32;;;;;;;1.00;1.00;;;30.20;96.50;;;;;;5029634;28;20600;-63
2022/08/25 08:23:08;;;;;;;2.22;1.23;;;30.00;96.10;;;;;;5025031;28;20437;-63
2022/08/25 08:25:35;;;;;;;1.50;1.40;;;29.90;96.20;;;;;;5029119;28;20458;-63
2022/08/25 08:28:02;;;;;;;1.25;1.25;;;30.10;96.60;;;;;;5018795;28;20961;-63
2022/08/25 08:30:35;;;;;;;1.23;1.23;;;30.30;95.80;;;;;;5021732;28;20546;-62
2022/08/25 08:33:04;;;;;;;1.45;1.35;;;30.00;95.80;;;;;;5024107;28;20430;-63
2022/08/25 08:35:39;;;;;;;1.38;1.38;;;30.40;96.20;;;;;;5018726;28;21040;-63
2022/08/25 08:38:07;;;;;;;1.48;1.38;;;30.50;96.10;;;;;;5018562;28;20439;-62
2022/08/25 08:43:55;;;;;;;1.20;1.20;;;31.10;95.00;;;;;;5025074;28;25663;-62
2022/08/25 08:46:23;;;;;;;1.47;1.37;;;31.10;95.10;;;;;;5051227;28;20435;-63
2022/08/25 08:49:09;;;;;;;1.37;1.27;;;31.00;94.80;;;;;;5019515;28;20469;-63
2022/08/25 08:51:50;;;;;;;1.00;1.00;;;31.30;94.80;;;;;;5032495;28;21127;-63
2022/08/25 08:54:23;;;;;;;1.15;1.15;;;31.20;94.70;;;;;;5017707;28;20436;-63
2022/08/25 08:57:04;;;;;;;0.95;0.90;;;31.20;94.80;;;;;;5017247;28;20438;-63
2022/08/25 08:59:40;;;;;;;1.30;1.20;;;31.20;94.60;;;;;;5054871;28;20434;-63
2022/08/25 09:02:15;;;;;;;1.25;1.15;;;31.20;94.50;;;;;;5024995;28;20438;-63
2022/08/25 09:05:07;;;;;;;1.00;1.00;;;30.40;94.60;;;;;;5021716;28;20422;-60
2022/08/25 09:07:47;;;;;;;1.00;1.00;;;30.20;95.40;;;;;;5018875;28;20436;-61
2022/08/25 09:10:18;;;;;;;1.00;1.00;;;30.00;95.10;;;;;;5023917;28;20466;-61
2022/08/25 09:12:57;;;;;;;1.23;1.23;;;30.20;95.40;;;;;;5022439;28;20729;-61
2022/08/25 09:18:49;;;;;;;1.15;1.15;;;30.70;94.90;;;;;;5014931;28;20434;-61
2022/08/25 09:21:56;;;;;;;1.10;1.10;;;31.00;94.30;;;;;;5026079;28;20426;-62
2022/08/25 09:24:36;;;;;;;0.98;0.98;;;30.00;94.10;;;;;;5028583;28;20463;-61
2022/08/25 09:27:21;;;;;;;1.10;1.00;;;30.10;94.20;;;;;;5020638;28;20431;-62
2022/08/25 09:30:18;;;;;;;0.90;0.90;;;29.30;94.00;;;;;;5022104;28;20426;-61
2022/08/25 09:33:00;;;;;;;0.80;0.80;;;28.90;94.90;;;;;;5021280;28;20436;-60
2022/08/25 09:35:34;;;;;;;0.90;0.90;;;29.00;95.30;;;;;;5023752;28;20438;-60
2022/08/25 09:38:04;;;;;;;0.90;0.90;;;29.30;94.70;;;;;;5029177;28;20492;-62
2022/08/25 09:40:34;;;;;;;0.90;0.90;;;29.80;94.80;;;;;;5029274;28;20438;-61
2022/08/25 09:43:04;;;;;;;0.90;0.90;;;29.90;93.90;;;;;;5030955;28;20508;-62
2022/08/25 09:45:42;;;;;;;0.95;0.93;;;29.90;94.40;;;;;;5019316;28;20505;-61
2022/08/25 09:48:38;;;;;;;0.80;0.80;;;29.90;93.50;;;;;;5041359;28;20517;-62
2022/08/25 09:51:19;;;;;;;0.80;0.80;;;29.60;93.70;;;;;;5027162;28;20432;-62
2022/08/25 09:54:17;;;;;;;1.10;1.10;;;29.60;94.00;;;;;;5029285;28;20435;-61
2022/08/25 09:56:55;;;;;;;0.90;0.90;;;29.90;94.40;;;;;;5036635;28;20465;-61
2022/08/25 09:59:28;;;;;;;1.20;1.10;;;30.10;94.00;;;;;;5036949;28;20874;-61
2022/08/25 10:02:27;;;;;;;1.00;1.00;;;30.00;93.90;;;;;;5030771;28;20439;-61
2022/08/25 10:04:55;;;;;;;0.95;0.95;;;30.50;93.40;;;;;;5017355;28;20435;-62
2022/08/25 10:07:46;;;;;;;1.17;1.17;;;30.10;93.20;;;;;;5025443;28;20449;-61
2022/08/25 10:10:27;;;;;;;0.98;0.98;;;30.40;93.80;;;;;;5029018;28;20442;-61
2022/08/25 10:13:00;;;;;;;1.52;1.23;;;30.50;93.20;;;;;;5030166;28;20429;-65
2022/08/25 10:15:34;;;;;;;1.00;0.95;;;30.50;93.50;;;;;;5025619;28;20517;-61
2022/08/25 10:18:25;;;;;;;0.95;0.95;;;29.80;93.80;;;;;;5023846;28;20488;-60
2022/08/25 10:21:04;;;;;;;1.05;1.05;;;29.60;94.00;;;;;;5020640;28;20439;-61
2022/08/25 10:23:40;;;;;;;1.38;1.20;;;29.90;94.30;;;;;;5025452;28;20933;-61
2022/08/25 10:26:29;;;;;;;1.05;1.05;;;30.30;93.80;;;;;;5025723;28;20434;-61
2022/08/25 10:29:08;;;;;;;1.08;0.98;;;31.00;92.80;;;;;;5008218;28;20901;-60
2022/08/25 10:31:44;;;;;;;1.10;1.10;;;30.80;93.10;;;;;;5025100;28;20430;-60
2022/08/25 10:34:40;;;;;;;1.27;1.20;;;31.00;93.10;;;;;;5028419;28;20437;-60
2022/08/25 10:37:22;;;;;;;1.10;1.10;;;31.20;92.90;;;;;;5026042;28;20461;-60
2022/08/25 10:40:21;;;;;;;1.10;1.10;;;31.20;92.90;;;;;;5040233;28;20443;-60
2022/08/25 10:43:06;;;;;;;1.10;1.10;;;31.50;92.90;;;;;;5029815;28;20437;-60
2022/08/25 10:46:01;;;;;;;1.10;1.10;;;31.40;92.40;;;;;;5023255;28;20443;-61
2022/08/25 10:48:40;;;;;;;1.13;1.02;;;31.30;92.70;;;;;;5013844;28;20450;-62
2022/08/25 10:51:48;;;;;;;0.90;0.90;;;31.60;92.10;;;;;;5022589;28;20533;-61
2022/08/25 10:54:46;;;;;;;1.17;1.17;;;32.10;92.40;;;;;;5044004;28;20441;-61
2022/08/25 10:57:20;;;;;;;0.98;0.98;;;31.80;91.40;;;;;;5020481;28;20467;-62
2022/08/25 10:59:57;;;;;;;1.20;1.20;;;32.10;91.30;;;;;;5019803;28;20449;-61
2022/08/25 11:03:06;;;;;;;1.20;1.20;;;32.30;91.30;;;;;;5028457;28;20467;-61
2022/08/25 11:05:56;;;;;;;1.10;1.10;;;32.50;91.20;;;;;;5018764;28;20431;-60
2022/08/25 11:08:41;;;;;;;1.20;0.90;;;33.00;91.20;;;;;;5025124;28;20499;-62
2022/08/25 11:11:20;;;;;;;1.27;1.17;;;33.00;90.90;;;;;;5021852;28;21279;-61
2022/08/25 11:13:57;;;;;;;1.45;1.40;;;32.30;91.00;;;;;;5024707;28;20492;-61
2022/08/25 11:16:39;;;;;;;1.08;0.98;;;31.20;91.60;;;;;;5017402;28;20564;-62
2022/08/25 11:19:29;;;;;;;1.00;1.00;;;31.30;91.80;;;;;;5018090;28;20445;-62
2022/08/25 11:22:17;;;;;;;1.38;1.27;;;31.70;91.50;;;;;;5019448;28;20454;-61
2022/08/25 11:25:08;;;;;;;1.10;1.10;;;31.60;91.70;;;;;;5021642;28;20430;-60
2022/08/25 11:28:01;;;;;;;1.05;1.05;;;31.50;91.80;;;;;;5023061;28;20513;-61
2022/08/25 11:30:29;;;;;;;1.10;1.10;;;30.90;92.30;;;;;;5020694;28;20903;-61
2022/08/25 11:32:57;;;;;;;1.10;1.10;;;31.20;92.40;;;;;;5016480;28;20901;-61
2022/08/25 11:35:40;;;;;;;1.05;1.05;;;31.50;91.80;;;;;;5025193;28;20430;-60
2022/08/25 11:38:17;;;;;;;1.20;1.20;;;31.50;91.60;;;;;;5028378;28;20909;-61
2022/08/25 11:41:08;;;;;;;0.90;0.90;;;31.20;91.70;;;;;;5028780;28;20446;-62
2022/08/25 11:44:06;;;;;;;0.95;0.95;;;30.70;92.00;;;;;;5027983;28;20450;-60
2022/08/25 11:46:46;;;;;;;1.30;1.20;;;30.80;91.90;;;;;;5036695;28;20436;-61
2022/08/25 11:49:41;;;;;;;1.02;1.02;;;31.60;91.30;;;;;;5028004;28;20474;-61
2022/08/25 11:52:32;;;;;;;1.50;1.50;;;31.00;91.10;;;;;;5015338;28;20446;-61
2022/08/25 11:55:06;;;;;;;1.40;1.38;;;31.50;91.40;;;;;;5029218;28;20508;-61
2022/08/25 11:57:36;;;;;;;0.90;0.90;;;31.50;91.40;;;;;;5028320;28;20434;-61
2022/08/25 12:00:39;;;;;;;1.10;1.10;;;31.50;91.60;;;;;;5021092;28;20545;-61
2022/08/25 12:03:32;;;;;;;0.90;0.90;;;30.90;91.50;;;;;;5023878;28;20464;-61
2022/08/25 12:06:32;;;;;;;1.17;1.08;;;30.70;92.00;;;;;;5041105;28;20478;-61
2022/08/25 12:08:58;;;;;;;0.98;0.98;;;30.70;92.20;;;;;;5021251;28;20514;-62
2022/08/25 12:11:37;;;;;;;1.30;1.20;;;30.80;91.10;;;;;;5029294;28;20493;-61
2022/08/25 12:14:15;;;;;;;0.80;0.80;;;30.90;91.00;;;;;;5028028;28;20435;-61
2022/08/25 12:16:50;;;;;;;1.10;1.10;;;30.80;91.10;;;;;;5013515;28;20999;-62
2022/08/25 12:19:47;;;;;;;1.13;1.02;;;31.20;91.20;;;;;;5025025;28;20489;-61
2022/08/25 12:22:14;;;;;;;1.02;1.02;;;31.90;90.70;;;;;;5031067;28;20439;-62
2022/08/25 12:24:48;;;;;;;1.17;1.08;;;32.90;89.80;;;;;;5023970;28;21125;-61
2022/08/25 12:27:24;;;;;;;0.80;0.80;;;33.40;89.50;;;;;;5017224;28;20444;-61
2022/08/25 12:30:20;;;;;;;0.98;0.98;;;33.60;87.70;;;;;;5026599;28;20867;-61
2022/08/25 12:33:05;;;;;;;0.80;0.80;;;33.60;88.30;;;;;;5028910;28;21014;-61
2022/08/25 12:35:52;;;;;;;1.00;1.00;;;33.90;88.10;;;;;;5017708;28;21225;-62
2022/08/25 12:38:33;;;;;;;0.70;0.70;;;33.90;87.10;;;;;;5013579;28;20831;-62
2022/08/25 12:41:17;;;;;;;1.02;1.02;;;32.70;87.80;;;;;;5021040;28;20431;-61
2022/08/25 12:43:46;;;;;;;1.30;0.90;;;31.90;88.70;;;;;;5040877;28;21108;-61
2022/08/25 12:46:26;;;;;;;0.70;0.70;;;31.50;90.20;;;;;;5030798;28;20446;-61
2022/08/25 12:49:28;;;;;;;0.63;0.63;;;31.80;90.10;;;;;;5026633;28;20433;-62
2022/08/25 12:52:03;;;;;;;0.80;0.80;;;32.00;87.70;;;;;;5027316;28;20497;-61
2022/08/25 12:54:56;;;;;;;0.70;0.70;;;32.60;87.80;;;;;;5016927;28;20436;-61
2022/08/25 12:57:56;;;;;;;0.60;0.60;;;33.50;86.20;;;;;;5035609;28;21373;-62
2022/08/25 13:00:24;;;;;;;0.80;0.80;;;34.10;83.60;;;;;;5019956;28;20808;-62
2022/08/25 13:03:10;;;;;;;0.77;0.77;;;34.90;82.80;;;;;;5029486;28;20425;-62
2022/08/25 13:05:45;;;;;;;0.90;0.70;;;34.90;81.20;;;;;;5026361;28;20439;-62
2022/08/25 13:08:26;;;;;;;0.70;0.70;;;34.60;81.90;;;;;;5009330;28;20430;-62
2022/08/25 13:11:34;;;;;;;0.77;0.77;;;33.60;82.70;;;;;;5023716;28;20430;-63
2022/08/25 13:14:18;;;;;;;0.80;0.80;;;33.40;82.90;;;;;;5015880;28;20429;-62
2022/08/25 13:16:56;;;;;;;0.73;0.73;;;33.40;83.20;;;;;;5017109;28;20437;-62
2022/08/25 13:19:24;;;;;;;0.80;0.80;;;34.20;82.10;;;;;;5012638;28;20565;-62
2022/08/25 13:21:53;;;;;;;0.80;0.80;;;34.90;81.30;;;;;;5016822;28;20438;-62
2022/08/25 13:24:24;;;;;;;0.90;0.90;;;34.70;79.90;;;;;;5025084;28;20436;-63
2022/08/25 13:26:58;;;;;;;0.60;0.60;;;35.20;80.50;;;;;;5025246;28;20512;-63
2022/08/25 13:29:33;;;;;;;0.68;0.68;;;36.20;79.10;;;;;;5022589;28;20549;-64
2022/08/25 13:32:11;;;;;;;0.90;0.90;;;37.00;77.70;;;;;;5028310;28;20430;-61
2022/08/25 13:34:43;;;;;;;0.60;0.60;;;36.90;78.10;;;;;;5032043;28;20431;-62
2022/08/25 13:37:26;;;;;;;0.63;0.63;;;37.30;78.10;;;;;;5029819;28;20477;-61